sensor_id;sensor_type;location;lat;lon;timestamp;P1;durP1;ratioP1;P2;durP2;ratioP2
14768;SDS011;7476;49.404;11.152;2023-11-21T00:01:11;2.90;;;1.80;;
14768;SDS011;7476;49.404;11.152;2023-11-21T00:03:39;2.40;;;1.43;;
14768;SDS011;7476;49.404;11.152;2023-11-21T00:06:06;4.73;;;2.00;;
14768;SDS011;7476;49.404;11.152;2023-11-21T00:08:34;3.30;;;1.73;;
14768;SDS011;7476;49.404;11.152;2023-11-21T00:11:01;2.30;;;1.67;;
14768;SDS011;7476;49.404;11.152;2023-11-21T00:13:30;2.77;;;1.80;;
14768;SDS011;7476;49.404;11.152;2023-11-21T00:15:56;3.83;;;1.57;;
14768;SDS011;7476;49.404;11.152;2023-11-21T00:18:23;4.97;;;1.90;;
14768;SDS011;7476;49.404;11.152;2023-11-21T00:20:51;2.47;;;1.50;;
14768;SDS011;7476;49.404;11.152;2023-11-21T00:23:18;3.50;;;1.50;;
14768;SDS011;7476;49.404;11.152;2023-11-21T00:25:44;4.70;;;1.53;;
14768;SDS011;7476;49.404;11.152;2023-11-21T00:28:11;3.33;;;1.90;;
14768;SDS011;7476;49.404;11.152;2023-11-21T00:30:38;4.63;;;1.50;;
14768;SDS011;7476;49.404;11.152;2023-11-21T00:33:04;3.63;;;1.90;;
14768;SDS011;7476;49.404;11.152;2023-11-21T00:35:31;3.97;;;1.73;;
14768;SDS011;7476;49.404;11.152;2023-11-21T00:37:59;2.87;;;1.87;;
14768;SDS011;7476;49.404;11.152;2023-11-21T00:40:26;2.83;;;1.83;;
14768;SDS011;7476;49.404;11.152;2023-11-21T00:42:52;2.63;;;1.70;;
14768;SDS011;7476;49.404;11.152;2023-11-21T00:45:21;4.43;;;1.80;;
14768;SDS011;7476;49.404;11.152;2023-11-21T00:47:47;4.17;;;2.13;;
14768;SDS011;7476;49.404;11.152;2023-11-21T00:50:14;3.73;;;2.10;;
14768;SDS011;7476;49.404;11.152;2023-11-21T00:52:41;4.13;;;2.20;;
14768;SDS011;7476;49.404;11.152;2023-11-21T00:55:09;5.07;;;2.03;;
14768;SDS011;7476;49.404;11.152;2023-11-21T00:57:36;6.43;;;2.60;;
14768;SDS011;7476;49.404;11.152;2023-11-21T01:00:04;5.10;;;2.67;;
14768;SDS011;7476;49.404;11.152;2023-11-21T01:02:38;3.00;;;2.30;;
14768;SDS011;7476;49.404;11.152;2023-11-21T01:05:05;3.57;;;2.23;;
14768;SDS011;7476;49.404;11.152;2023-11-21T01:07:33;3.17;;;2.20;;
14768;SDS011;7476;49.404;11.152;2023-11-21T01:10:01;4.60;;;2.30;;
14768;SDS011;7476;49.404;11.152;2023-11-21T01:12:32;2.20;;;2.00;;
14768;SDS011;7476;49.404;11.152;2023-11-21T01:14:58;2.70;;;2.30;;
14768;SDS011;7476;49.404;11.152;2023-11-21T01:17:25;4.27;;;2.40;;
14768;SDS011;7476;49.404;11.152;2023-11-21T01:19:52;3.13;;;2.10;;
14768;SDS011;7476;49.404;11.152;2023-11-21T01:22:19;3.80;;;2.13;;
14768;SDS011;7476;49.404;11.152;2023-11-21T01:24:50;4.43;;;2.20;;
14768;SDS011;7476;49.404;11.152;2023-11-21T01:27:17;2.80;;;1.93;;
14768;SDS011;7476;49.404;11.152;2023-11-21T01:29:45;3.60;;;2.10;;
14768;SDS011;7476;49.404;11.152;2023-11-21T01:32:12;3.80;;;2.10;;
14768;SDS011;7476;49.404;11.152;2023-11-21T01:34:39;3.90;;;2.07;;
14768;SDS011;7476;49.404;11.152;2023-11-21T01:37:05;3.00;;;2.17;;
14768;SDS011;7476;49.404;11.152;2023-11-21T01:39:32;3.10;;;2.00;;
14768;SDS011;7476;49.404;11.152;2023-11-21T01:41:59;3.53;;;1.80;;
14768;SDS011;7476;49.404;11.152;2023-11-21T01:44:26;2.73;;;2.00;;
14768;SDS011;7476;49.404;11.152;2023-11-21T01:46:54;2.47;;;1.73;;
14768;SDS011;7476;49.404;11.152;2023-11-21T01:49:22;3.27;;;2.00;;
14768;SDS011;7476;49.404;11.152;2023-11-21T01:51:49;2.63;;;1.90;;
14768;SDS011;7476;49.404;11.152;2023-11-21T01:54:16;2.60;;;1.83;;
14768;SDS011;7476;49.404;11.152;2023-11-21T01:56:45;3.53;;;1.93;;
14768;SDS011;7476;49.404;11.152;2023-11-21T01:59:12;4.30;;;2.13;;
14768;SDS011;7476;49.404;11.152;2023-11-21T02:01:43;4.17;;;2.17;;
14768;SDS011;7476;49.404;11.152;2023-11-21T02:04:11;3.37;;;1.73;;
14768;SDS011;7476;49.404;11.152;2023-11-21T02:06:38;3.23;;;1.83;;
14768;SDS011;7476;49.404;11.152;2023-11-21T02:09:05;2.00;;;1.80;;
14768;SDS011;7476;49.404;11.152;2023-11-21T02:11:31;3.30;;;1.80;;
14768;SDS011;7476;49.404;11.152;2023-11-21T02:13:59;3.67;;;2.10;;
14768;SDS011;7476;49.404;11.152;2023-11-21T02:16:26;4.20;;;1.80;;
14768;SDS011;7476;49.404;11.152;2023-11-21T02:18:56;2.73;;;1.63;;
14768;SDS011;7476;49.404;11.152;2023-11-21T02:21:25;3.30;;;1.87;;
14768;SDS011;7476;49.404;11.152;2023-11-21T02:23:53;2.40;;;1.70;;
14768;SDS011;7476;49.404;11.152;2023-11-21T02:26:20;2.80;;;1.70;;
14768;SDS011;7476;49.404;11.152;2023-11-21T02:28:47;3.83;;;1.83;;
14768;SDS011;7476;49.404;11.152;2023-11-21T02:31:13;2.67;;;1.53;;
14768;SDS011;7476;49.404;11.152;2023-11-21T02:33:41;3.00;;;1.90;;
14768;SDS011;7476;49.404;11.152;2023-11-21T02:36:09;2.20;;;1.70;;
14768;SDS011;7476;49.404;11.152;2023-11-21T02:38:35;3.57;;;1.80;;
14768;SDS011;7476;49.404;11.152;2023-11-21T02:41:03;2.00;;;1.63;;
14768;SDS011;7476;49.404;11.152;2023-11-21T02:43:30;3.70;;;1.80;;
14768;SDS011;7476;49.404;11.152;2023-11-21T02:45:57;3.73;;;1.70;;
14768;SDS011;7476;49.404;11.152;2023-11-21T02:48:23;3.37;;;1.77;;
14768;SDS011;7476;49.404;11.152;2023-11-21T02:50:50;4.53;;;1.77;;
14768;SDS011;7476;49.404;11.152;2023-11-21T02:53:18;5.30;;;1.80;;
14768;SDS011;7476;49.404;11.152;2023-11-21T02:55:45;3.83;;;2.00;;
14768;SDS011;7476;49.404;11.152;2023-11-21T02:58:13;4.17;;;1.90;;
14768;SDS011;7476;49.404;11.152;2023-11-21T03:00:39;4.60;;;1.87;;
14768;SDS011;7476;49.404;11.152;2023-11-21T03:03:06;2.27;;;1.90;;
14768;SDS011;7476;49.404;11.152;2023-11-21T03:05:33;3.93;;;1.87;;
14768;SDS011;7476;49.404;11.152;2023-11-21T03:08:00;5.10;;;2.10;;
14768;SDS011;7476;49.404;11.152;2023-11-21T03:10:27;4.60;;;1.90;;
14768;SDS011;7476;49.404;11.152;2023-11-21T03:12:53;3.00;;;1.70;;
14768;SDS011;7476;49.404;11.152;2023-11-21T03:15:21;2.90;;;2.00;;
14768;SDS011;7476;49.404;11.152;2023-11-21T03:17:48;2.80;;;2.17;;
14768;SDS011;7476;49.404;11.152;2023-11-21T03:20:15;5.77;;;1.80;;
14768;SDS011;7476;49.404;11.152;2023-11-21T03:22:41;3.50;;;2.10;;
14768;SDS011;7476;49.404;11.152;2023-11-21T03:25:09;2.67;;;1.77;;
14768;SDS011;7476;49.404;11.152;2023-11-21T03:27:36;3.00;;;2.00;;
14768;SDS011;7476;49.404;11.152;2023-11-21T03:30:04;3.33;;;2.17;;
14768;SDS011;7476;49.404;11.152;2023-11-21T03:32:33;4.67;;;2.00;;
14768;SDS011;7476;49.404;11.152;2023-11-21T03:35:00;3.93;;;1.93;;
14768;SDS011;7476;49.404;11.152;2023-11-21T03:37:28;3.87;;;2.20;;
14768;SDS011;7476;49.404;11.152;2023-11-21T03:39:55;3.40;;;2.10;;
14768;SDS011;7476;49.404;11.152;2023-11-21T03:42:22;4.37;;;2.00;;
14768;SDS011;7476;49.404;11.152;2023-11-21T03:44:50;2.90;;;2.10;;
14768;SDS011;7476;49.404;11.152;2023-11-21T03:47:17;3.47;;;2.10;;
14768;SDS011;7476;49.404;11.152;2023-11-21T03:49:45;3.77;;;2.10;;
14768;SDS011;7476;49.404;11.152;2023-11-21T03:52:12;2.57;;;2.13;;
14768;SDS011;7476;49.404;11.152;2023-11-21T03:54:38;4.87;;;2.20;;
14768;SDS011;7476;49.404;11.152;2023-11-21T03:57:05;2.10;;;1.90;;
14768;SDS011;7476;49.404;11.152;2023-11-21T03:59:32;4.90;;;2.00;;
14768;SDS011;7476;49.404;11.152;2023-11-21T04:01:59;5.10;;;2.30;;
14768;SDS011;7476;49.404;11.152;2023-11-21T04:04:25;6.80;;;2.20;;
14768;SDS011;7476;49.404;11.152;2023-11-21T04:06:53;4.83;;;2.20;;
14768;SDS011;7476;49.404;11.152;2023-11-21T04:09:21;3.37;;;2.20;;
14768;SDS011;7476;49.404;11.152;2023-11-21T04:11:50;4.07;;;2.00;;
14768;SDS011;7476;49.404;11.152;2023-11-21T04:14:16;3.53;;;1.90;;
14768;SDS011;7476;49.404;11.152;2023-11-21T04:16:43;3.63;;;2.17;;
14768;SDS011;7476;49.404;11.152;2023-11-21T04:19:10;3.73;;;2.00;;
14768;SDS011;7476;49.404;11.152;2023-11-21T04:21:39;3.03;;;2.37;;
14768;SDS011;7476;49.404;11.152;2023-11-21T04:24:07;3.60;;;2.27;;
14768;SDS011;7476;49.404;11.152;2023-11-21T04:26:34;5.17;;;2.60;;
14768;SDS011;7476;49.404;11.152;2023-11-21T04:29:01;3.97;;;2.57;;
14768;SDS011;7476;49.404;11.152;2023-11-21T04:31:28;4.30;;;2.10;;
14768;SDS011;7476;49.404;11.152;2023-11-21T04:33:54;3.13;;;2.00;;
14768;SDS011;7476;49.404;11.152;2023-11-21T04:36:21;2.70;;;2.20;;
14768;SDS011;7476;49.404;11.152;2023-11-21T04:38:48;4.20;;;2.27;;
14768;SDS011;7476;49.404;11.152;2023-11-21T04:41:16;2.70;;;2.00;;
14768;SDS011;7476;49.404;11.152;2023-11-21T04:43:43;2.57;;;2.00;;
14768;SDS011;7476;49.404;11.152;2023-11-21T04:46:09;4.60;;;2.27;;
14768;SDS011;7476;49.404;11.152;2023-11-21T04:48:36;3.30;;;2.30;;
14768;SDS011;7476;49.404;11.152;2023-11-21T04:51:03;3.83;;;2.60;;
14768;SDS011;7476;49.404;11.152;2023-11-21T04:53:30;3.57;;;1.83;;
14768;SDS011;7476;49.404;11.152;2023-11-21T04:55:56;2.47;;;2.03;;
14768;SDS011;7476;49.404;11.152;2023-11-21T04:58:25;3.37;;;2.23;;
14768;SDS011;7476;49.404;11.152;2023-11-21T05:00:51;5.20;;;2.40;;
14768;SDS011;7476;49.404;11.152;2023-11-21T05:03:18;4.57;;;2.67;;
14768;SDS011;7476;49.404;11.152;2023-11-21T05:05:45;2.93;;;2.20;;
14768;SDS011;7476;49.404;11.152;2023-11-21T05:08:12;3.83;;;2.43;;
14768;SDS011;7476;49.404;11.152;2023-11-21T05:10:39;4.40;;;2.20;;
14768;SDS011;7476;49.404;11.152;2023-11-21T05:13:06;5.03;;;2.50;;
14768;SDS011;7476;49.404;11.152;2023-11-21T05:15:36;3.10;;;2.47;;
14768;SDS011;7476;49.404;11.152;2023-11-21T05:18:03;4.07;;;2.30;;
14768;SDS011;7476;49.404;11.152;2023-11-21T05:20:30;3.80;;;2.50;;
14768;SDS011;7476;49.404;11.152;2023-11-21T05:22:58;4.50;;;2.50;;
14768;SDS011;7476;49.404;11.152;2023-11-21T05:25:24;5.40;;;2.50;;
14768;SDS011;7476;49.404;11.152;2023-11-21T05:27:51;4.43;;;2.93;;
14768;SDS011;7476;49.404;11.152;2023-11-21T05:30:18;4.60;;;2.90;;
14768;SDS011;7476;49.404;11.152;2023-11-21T05:32:46;5.20;;;2.83;;
14768;SDS011;7476;49.404;11.152;2023-11-21T05:35:14;3.33;;;2.80;;
14768;SDS011;7476;49.404;11.152;2023-11-21T05:37:41;5.10;;;3.57;;
14768;SDS011;7476;49.404;11.152;2023-11-21T05:40:08;4.67;;;3.70;;
14768;SDS011;7476;49.404;11.152;2023-11-21T05:42:35;4.63;;;2.97;;
14768;SDS011;7476;49.404;11.152;2023-11-21T05:45:04;3.70;;;2.83;;
14768;SDS011;7476;49.404;11.152;2023-11-21T05:47:36;7.73;;;4.17;;
14768;SDS011;7476;49.404;11.152;2023-11-21T05:50:06;5.13;;;3.30;;
14768;SDS011;7476;49.404;11.152;2023-11-21T05:52:37;4.53;;;3.27;;
14768;SDS011;7476;49.404;11.152;2023-11-21T05:55:04;5.93;;;3.60;;
14768;SDS011;7476;49.404;11.152;2023-11-21T05:57:33;3.70;;;3.10;;
14768;SDS011;7476;49.404;11.152;2023-11-21T06:00:02;4.60;;;3.03;;
14768;SDS011;7476;49.404;11.152;2023-11-21T06:02:36;5.60;;;3.47;;
14768;SDS011;7476;49.404;11.152;2023-11-21T06:05:03;4.57;;;3.20;;
14768;SDS011;7476;49.404;11.152;2023-11-21T06:07:31;4.30;;;3.03;;
14768;SDS011;7476;49.404;11.152;2023-11-21T06:09:58;5.57;;;3.10;;
14768;SDS011;7476;49.404;11.152;2023-11-21T06:12:26;5.67;;;3.67;;
14768;SDS011;7476;49.404;11.152;2023-11-21T06:14:52;4.57;;;3.33;;
14768;SDS011;7476;49.404;11.152;2023-11-21T06:17:20;3.67;;;3.20;;
14768;SDS011;7476;49.404;11.152;2023-11-21T06:19:49;6.47;;;3.43;;
14768;SDS011;7476;49.404;11.152;2023-11-21T06:22:17;4.97;;;3.40;;
14768;SDS011;7476;49.404;11.152;2023-11-21T06:24:46;5.20;;;3.60;;
14768;SDS011;7476;49.404;11.152;2023-11-21T06:27:12;5.40;;;3.50;;
14768;SDS011;7476;49.404;11.152;2023-11-21T06:29:39;3.83;;;3.43;;
14768;SDS011;7476;49.404;11.152;2023-11-21T06:32:07;7.83;;;3.70;;
14768;SDS011;7476;49.404;11.152;2023-11-21T06:34:34;4.27;;;3.33;;
14768;SDS011;7476;49.404;11.152;2023-11-21T06:37:00;4.73;;;3.90;;
14768;SDS011;7476;49.404;11.152;2023-11-21T06:39:27;4.30;;;3.47;;
14768;SDS011;7476;49.404;11.152;2023-11-21T06:41:55;6.33;;;3.57;;
14768;SDS011;7476;49.404;11.152;2023-11-21T06:44:22;5.17;;;3.73;;
14768;SDS011;7476;49.404;11.152;2023-11-21T06:46:49;7.30;;;4.30;;
14768;SDS011;7476;49.404;11.152;2023-11-21T06:49:16;5.30;;;3.77;;
14768;SDS011;7476;49.404;11.152;2023-11-21T06:51:43;5.50;;;4.20;;
14768;SDS011;7476;49.404;11.152;2023-11-21T06:54:10;5.90;;;4.20;;
14768;SDS011;7476;49.404;11.152;2023-11-21T06:56:36;5.97;;;3.73;;
14768;SDS011;7476;49.404;11.152;2023-11-21T06:59:05;6.53;;;4.00;;
14768;SDS011;7476;49.404;11.152;2023-11-21T07:01:32;6.67;;;4.40;;
14768;SDS011;7476;49.404;11.152;2023-11-21T07:04:04;4.87;;;4.23;;
14768;SDS011;7476;49.404;11.152;2023-11-21T07:06:31;4.47;;;4.00;;
14768;SDS011;7476;49.404;11.152;2023-11-21T07:08:57;5.50;;;4.03;;
14768;SDS011;7476;49.404;11.152;2023-11-21T07:11:26;5.40;;;3.80;;
14768;SDS011;7476;49.404;11.152;2023-11-21T07:13:52;7.73;;;4.20;;
14768;SDS011;7476;49.404;11.152;2023-11-21T07:16:20;6.00;;;3.77;;
14768;SDS011;7476;49.404;11.152;2023-11-21T07:18:48;5.50;;;3.90;;
14768;SDS011;7476;49.404;11.152;2023-11-21T07:21:15;4.70;;;4.20;;
14768;SDS011;7476;49.404;11.152;2023-11-21T07:23:42;7.30;;;3.90;;
14768;SDS011;7476;49.404;11.152;2023-11-21T07:26:08;5.47;;;4.27;;
14768;SDS011;7476;49.404;11.152;2023-11-21T07:28:35;5.13;;;4.30;;
14768;SDS011;7476;49.404;11.152;2023-11-21T07:31:02;7.77;;;4.73;;
14768;SDS011;7476;49.404;11.152;2023-11-21T07:33:30;5.90;;;4.67;;
14768;SDS011;7476;49.404;11.152;2023-11-21T07:35:57;5.43;;;4.23;;
14768;SDS011;7476;49.404;11.152;2023-11-21T07:38:24;5.17;;;4.63;;
14768;SDS011;7476;49.404;11.152;2023-11-21T07:40:50;6.20;;;4.90;;
14768;SDS011;7476;49.404;11.152;2023-11-21T07:43:17;5.87;;;4.60;;
14768;SDS011;7476;49.404;11.152;2023-11-21T07:45:44;6.80;;;5.27;;
14768;SDS011;7476;49.404;11.152;2023-11-21T07:48:11;5.60;;;4.83;;
14768;SDS011;7476;49.404;11.152;2023-11-21T07:50:39;7.07;;;5.27;;
14768;SDS011;7476;49.404;11.152;2023-11-21T07:53:06;8.27;;;5.20;;
14768;SDS011;7476;49.404;11.152;2023-11-21T07:55:32;7.17;;;4.60;;
14768;SDS011;7476;49.404;11.152;2023-11-21T07:57:59;5.47;;;4.97;;
14768;SDS011;7476;49.404;11.152;2023-11-21T08:00:26;7.03;;;4.60;;
14768;SDS011;7476;49.404;11.152;2023-11-21T08:02:55;7.37;;;4.70;;
14768;SDS011;7476;49.404;11.152;2023-11-21T08:05:21;10.23;;;5.30;;
14768;SDS011;7476;49.404;11.152;2023-11-21T08:07:49;7.83;;;5.13;;
14768;SDS011;7476;49.404;11.152;2023-11-21T08:10:16;7.53;;;5.03;;
14768;SDS011;7476;49.404;11.152;2023-11-21T08:12:43;6.17;;;5.00;;
14768;SDS011;7476;49.404;11.152;2023-11-21T08:15:10;6.33;;;5.07;;
14768;SDS011;7476;49.404;11.152;2023-11-21T08:17:36;6.33;;;5.20;;
14768;SDS011;7476;49.404;11.152;2023-11-21T08:20:04;7.20;;;5.47;;
14768;SDS011;7476;49.404;11.152;2023-11-21T08:22:33;7.77;;;5.20;;
14768;SDS011;7476;49.404;11.152;2023-11-21T08:25:01;9.23;;;4.73;;
14768;SDS011;7476;49.404;11.152;2023-11-21T08:27:30;7.83;;;5.43;;
14768;SDS011;7476;49.404;11.152;2023-11-21T08:29:56;7.23;;;5.13;;
14768;SDS011;7476;49.404;11.152;2023-11-21T08:32:23;8.83;;;5.07;;
14768;SDS011;7476;49.404;11.152;2023-11-21T08:34:50;6.90;;;4.83;;
14768;SDS011;7476;49.404;11.152;2023-11-21T08:37:16;5.77;;;4.20;;
14768;SDS011;7476;49.404;11.152;2023-11-21T08:39:43;6.03;;;4.53;;
14768;SDS011;7476;49.404;11.152;2023-11-21T08:42:11;5.83;;;4.23;;
14768;SDS011;7476;49.404;11.152;2023-11-21T08:44:38;5.47;;;4.13;;
14768;SDS011;7476;49.404;11.152;2023-11-21T08:47:05;6.53;;;4.23;;
14768;SDS011;7476;49.404;11.152;2023-11-21T08:49:32;5.73;;;4.43;;
14768;SDS011;7476;49.404;11.152;2023-11-21T08:51:58;4.40;;;4.00;;
14768;SDS011;7476;49.404;11.152;2023-11-21T08:54:25;4.83;;;3.90;;
14768;SDS011;7476;49.404;11.152;2023-11-21T08:56:52;4.57;;;4.00;;
14768;SDS011;7476;49.404;11.152;2023-11-21T08:59:21;6.33;;;4.47;;
14768;SDS011;7476;49.404;11.152;2023-11-21T09:01:47;5.33;;;4.27;;
14768;SDS011;7476;49.404;11.152;2023-11-21T09:04:14;6.03;;;4.33;;
14768;SDS011;7476;49.404;11.152;2023-11-21T09:06:41;5.57;;;4.20;;
14768;SDS011;7476;49.404;11.152;2023-11-21T09:09:07;6.13;;;4.60;;
14768;SDS011;7476;49.404;11.152;2023-11-21T09:11:35;7.63;;;4.60;;
14768;SDS011;7476;49.404;11.152;2023-11-21T09:14:02;4.80;;;4.33;;
14768;SDS011;7476;49.404;11.152;2023-11-21T09:16:30;4.70;;;3.90;;
14768;SDS011;7476;49.404;11.152;2023-11-21T09:18:57;4.67;;;3.83;;
14768;SDS011;7476;49.404;11.152;2023-11-21T09:21:24;4.40;;;4.00;;
14768;SDS011;7476;49.404;11.152;2023-11-21T09:23:51;5.80;;;4.27;;
14768;SDS011;7476;49.404;11.152;2023-11-21T09:26:19;5.17;;;4.33;;
14768;SDS011;7476;49.404;11.152;2023-11-21T09:28:45;6.47;;;4.83;;
14768;SDS011;7476;49.404;11.152;2023-11-21T09:31:13;5.53;;;4.60;;
14768;SDS011;7476;49.404;11.152;2023-11-21T09:33:42;7.00;;;5.20;;
14768;SDS011;7476;49.404;11.152;2023-11-21T09:36:11;7.97;;;5.20;;
14768;SDS011;7476;49.404;11.152;2023-11-21T09:38:38;5.63;;;5.00;;
14768;SDS011;7476;49.404;11.152;2023-11-21T09:41:06;6.50;;;5.17;;
14768;SDS011;7476;49.404;11.152;2023-11-21T09:43:42;5.80;;;5.10;;
14768;SDS011;7476;49.404;11.152;2023-11-21T09:46:11;6.97;;;5.90;;
14768;SDS011;7476;49.404;11.152;2023-11-21T09:48:46;6.77;;;5.40;;
14768;SDS011;7476;49.404;11.152;2023-11-21T09:51:17;6.00;;;5.40;;
14768;SDS011;7476;49.404;11.152;2023-11-21T09:53:46;6.30;;;5.67;;
14768;SDS011;7476;49.404;11.152;2023-11-21T09:56:16;6.70;;;5.67;;
14768;SDS011;7476;49.404;11.152;2023-11-21T09:58:49;8.47;;;5.90;;
14768;SDS011;7476;49.404;11.152;2023-11-21T10:01:17;6.93;;;6.00;;
14768;SDS011;7476;49.404;11.152;2023-11-21T10:03:48;6.93;;;5.90;;
14768;SDS011;7476;49.404;11.152;2023-11-21T10:06:14;8.63;;;5.70;;
14768;SDS011;7476;49.404;11.152;2023-11-21T10:08:42;5.97;;;5.37;;
14768;SDS011;7476;49.404;11.152;2023-11-21T10:11:09;7.07;;;6.00;;
14768;SDS011;7476;49.404;11.152;2023-11-21T10:13:39;7.60;;;5.40;;
14768;SDS011;7476;49.404;11.152;2023-11-21T10:16:07;5.80;;;5.30;;
14768;SDS011;7476;49.404;11.152;2023-11-21T10:18:37;5.47;;;4.90;;
14768;SDS011;7476;49.404;11.152;2023-11-21T10:21:06;7.00;;;4.93;;
14768;SDS011;7476;49.404;11.152;2023-11-21T10:23:34;7.47;;;4.63;;
14768;SDS011;7476;49.404;11.152;2023-11-21T10:26:01;7.20;;;4.37;;
14768;SDS011;7476;49.404;11.152;2023-11-21T10:28:28;6.13;;;3.83;;
14768;SDS011;7476;49.404;11.152;2023-11-21T10:30:54;5.07;;;3.87;;
14768;SDS011;7476;49.404;11.152;2023-11-21T10:33:26;5.63;;;3.67;;
14768;SDS011;7476;49.404;11.152;2023-11-21T10:35:54;6.20;;;3.30;;
14768;SDS011;7476;49.404;11.152;2023-11-21T10:38:22;4.03;;;3.07;;
14768;SDS011;7476;49.404;11.152;2023-11-21T10:40:50;2.97;;;2.67;;
14768;SDS011;7476;49.404;11.152;2023-11-21T10:43:17;3.27;;;2.23;;
14768;SDS011;7476;49.404;11.152;2023-11-21T10:45:44;3.13;;;2.67;;
14768;SDS011;7476;49.404;11.152;2023-11-21T10:48:12;2.30;;;2.10;;
14768;SDS011;7476;49.404;11.152;2023-11-21T10:50:42;3.30;;;2.40;;
14768;SDS011;7476;49.404;11.152;2023-11-21T10:53:09;3.33;;;2.33;;
14768;SDS011;7476;49.404;11.152;2023-11-21T10:55:39;2.57;;;2.23;;
14768;SDS011;7476;49.404;11.152;2023-11-21T10:58:06;5.23;;;3.03;;
14768;SDS011;7476;49.404;11.152;2023-11-21T11:00:35;2.70;;;2.50;;
14768;SDS011;7476;49.404;11.152;2023-11-21T11:03:05;4.83;;;2.57;;
14768;SDS011;7476;49.404;11.152;2023-11-21T11:05:40;2.40;;;2.20;;
14768;SDS011;7476;49.404;11.152;2023-11-21T11:08:11;2.57;;;2.10;;
14768;SDS011;7476;49.404;11.152;2023-11-21T11:10:45;3.60;;;2.20;;
14768;SDS011;7476;49.404;11.152;2023-11-21T11:13:12;3.97;;;2.53;;
14768;SDS011;7476;49.404;11.152;2023-11-21T11:15:40;4.57;;;2.73;;
14768;SDS011;7476;49.404;11.152;2023-11-21T11:18:09;11.07;;;2.60;;
14768;SDS011;7476;49.404;11.152;2023-11-21T11:20:37;3.77;;;2.63;;
14768;SDS011;7476;49.404;11.152;2023-11-21T11:23:10;3.50;;;2.83;;
14768;SDS011;7476;49.404;11.152;2023-11-21T11:25:58;3.37;;;2.60;;
14768;SDS011;7476;49.404;11.152;2023-11-21T11:28:35;3.30;;;2.47;;
14768;SDS011;7476;49.404;11.152;2023-11-21T11:31:13;3.53;;;2.30;;
14768;SDS011;7476;49.404;11.152;2023-11-21T11:33:53;4.60;;;2.83;;
14768;SDS011;7476;49.404;11.152;2023-11-21T11:36:25;4.17;;;2.70;;
14768;SDS011;7476;49.404;11.152;2023-11-21T11:38:56;2.73;;;2.20;;
14768;SDS011;7476;49.404;11.152;2023-11-21T11:41:27;3.93;;;2.70;;
14768;SDS011;7476;49.404;11.152;2023-11-21T11:43:59;2.27;;;2.07;;
14768;SDS011;7476;49.404;11.152;2023-11-21T11:46:39;5.23;;;2.50;;
14768;SDS011;7476;49.404;11.152;2023-11-21T11:49:07;4.00;;;2.60;;
14768;SDS011;7476;49.404;11.152;2023-11-21T11:51:34;2.90;;;2.30;;
14768;SDS011;7476;49.404;11.152;2023-11-21T11:54:01;2.53;;;2.30;;
14768;SDS011;7476;49.404;11.152;2023-11-21T11:56:30;2.47;;;1.97;;
14768;SDS011;7476;49.404;11.152;2023-11-21T11:59:00;3.20;;;2.37;;
14768;SDS011;7476;49.404;11.152;2023-11-21T12:01:27;2.70;;;2.27;;
14768;SDS011;7476;49.404;11.152;2023-11-21T12:06:55;3.87;;;2.10;;
14768;SDS011;7476;49.404;11.152;2023-11-21T12:09:25;3.27;;;2.30;;
14768;SDS011;7476;49.404;11.152;2023-11-21T12:11:53;3.47;;;2.60;;
14768;SDS011;7476;49.404;11.152;2023-11-21T12:14:21;2.73;;;2.50;;
14768;SDS011;7476;49.404;11.152;2023-11-21T12:16:48;4.37;;;2.43;;
14768;SDS011;7476;49.404;11.152;2023-11-21T12:19:16;2.90;;;2.20;;
14768;SDS011;7476;49.404;11.152;2023-11-21T12:21:43;2.93;;;2.30;;
14768;SDS011;7476;49.404;11.152;2023-11-21T12:24:10;4.63;;;2.40;;
14768;SDS011;7476;49.404;11.152;2023-11-21T12:26:38;2.90;;;2.27;;
14768;SDS011;7476;49.404;11.152;2023-11-21T12:29:06;3.73;;;2.43;;
14768;SDS011;7476;49.404;11.152;2023-11-21T12:31:33;2.83;;;2.53;;
14768;SDS011;7476;49.404;11.152;2023-11-21T12:34:01;3.43;;;2.60;;
14768;SDS011;7476;49.404;11.152;2023-11-21T12:36:27;2.80;;;2.50;;
14768;SDS011;7476;49.404;11.152;2023-11-21T12:38:55;3.87;;;2.57;;
14768;SDS011;7476;49.404;11.152;2023-11-21T12:41:22;2.80;;;2.40;;
14768;SDS011;7476;49.404;11.152;2023-11-21T12:43:49;2.83;;;2.53;;
14768;SDS011;7476;49.404;11.152;2023-11-21T12:46:17;4.83;;;3.47;;
14768;SDS011;7476;49.404;11.152;2023-11-21T12:48:45;3.13;;;2.70;;
14768;SDS011;7476;49.404;11.152;2023-11-21T12:51:12;5.37;;;3.30;;
14768;SDS011;7476;49.404;11.152;2023-11-21T12:53:40;3.47;;;3.17;;
14768;SDS011;7476;49.404;11.152;2023-11-21T12:56:09;3.77;;;3.20;;
14768;SDS011;7476;49.404;11.152;2023-11-21T12:58:37;5.33;;;3.03;;
14768;SDS011;7476;49.404;11.152;2023-11-21T13:01:05;3.73;;;3.03;;
14768;SDS011;7476;49.404;11.152;2023-11-21T13:03:37;2.70;;;2.50;;
14768;SDS011;7476;49.404;11.152;2023-11-21T13:06:05;3.77;;;2.70;;
14768;SDS011;7476;49.404;11.152;2023-11-21T13:08:33;3.30;;;2.67;;
14768;SDS011;7476;49.404;11.152;2023-11-21T13:11:00;4.03;;;2.70;;
14768;SDS011;7476;49.404;11.152;2023-11-21T13:13:28;2.50;;;2.30;;
14768;SDS011;7476;49.404;11.152;2023-11-21T13:15:56;2.37;;;2.17;;
14768;SDS011;7476;49.404;11.152;2023-11-21T13:18:29;4.43;;;2.40;;
14768;SDS011;7476;49.404;11.152;2023-11-21T13:20:58;2.73;;;2.20;;
14768;SDS011;7476;49.404;11.152;2023-11-21T13:23:25;3.33;;;2.50;;
14768;SDS011;7476;49.404;11.152;2023-11-21T13:25:54;5.27;;;2.27;;
14768;SDS011;7476;49.404;11.152;2023-11-21T13:28:21;4.23;;;2.43;;
14768;SDS011;7476;49.404;11.152;2023-11-21T13:30:49;5.90;;;3.37;;
14768;SDS011;7476;49.404;11.152;2023-11-21T13:33:18;3.37;;;2.60;;
14768;SDS011;7476;49.404;11.152;2023-11-21T13:35:47;3.70;;;2.50;;
14768;SDS011;7476;49.404;11.152;2023-11-21T13:38:18;2.80;;;2.30;;
14768;SDS011;7476;49.404;11.152;2023-11-21T13:40:48;2.50;;;2.27;;
14768;SDS011;7476;49.404;11.152;2023-11-21T13:43:18;2.97;;;2.37;;
14768;SDS011;7476;49.404;11.152;2023-11-21T13:45:47;4.97;;;2.60;;
14768;SDS011;7476;49.404;11.152;2023-11-21T13:48:16;3.27;;;2.40;;
14768;SDS011;7476;49.404;11.152;2023-11-21T13:50:50;3.27;;;2.37;;
14768;SDS011;7476;49.404;11.152;2023-11-21T13:53:25;4.70;;;2.30;;
14768;SDS011;7476;49.404;11.152;2023-11-21T13:55:52;2.47;;;2.23;;
14768;SDS011;7476;49.404;11.152;2023-11-21T13:58:19;3.27;;;2.30;;
14768;SDS011;7476;49.404;11.152;2023-11-21T14:00:49;2.33;;;2.13;;
14768;SDS011;7476;49.404;11.152;2023-11-21T14:03:21;2.40;;;2.00;;
14768;SDS011;7476;49.404;11.152;2023-11-21T14:05:57;3.13;;;1.97;;
14768;SDS011;7476;49.404;11.152;2023-11-21T14:08:27;7.20;;;2.03;;
14768;SDS011;7476;49.404;11.152;2023-11-21T14:10:54;2.13;;;1.80;;
14768;SDS011;7476;49.404;11.152;2023-11-21T14:13:22;4.07;;;2.93;;
14768;SDS011;7476;49.404;11.152;2023-11-21T14:15:49;3.77;;;2.33;;
14768;SDS011;7476;49.404;11.152;2023-11-21T14:18:17;3.60;;;2.00;;
14768;SDS011;7476;49.404;11.152;2023-11-21T14:20:52;3.07;;;2.37;;
14768;SDS011;7476;49.404;11.152;2023-11-21T14:23:19;5.77;;;2.30;;
14768;SDS011;7476;49.404;11.152;2023-11-21T14:25:48;3.50;;;2.60;;
14768;SDS011;7476;49.404;11.152;2023-11-21T14:28:14;3.93;;;2.47;;
14768;SDS011;7476;49.404;11.152;2023-11-21T14:30:41;3.57;;;2.73;;
14768;SDS011;7476;49.404;11.152;2023-11-21T14:33:08;3.67;;;3.00;;
14768;SDS011;7476;49.404;11.152;2023-11-21T14:35:36;2.97;;;2.77;;
14768;SDS011;7476;49.404;11.152;2023-11-21T14:38:03;3.87;;;2.87;;
14768;SDS011;7476;49.404;11.152;2023-11-21T14:40:31;4.70;;;2.73;;
14768;SDS011;7476;49.404;11.152;2023-11-21T14:43:02;3.30;;;2.73;;
14768;SDS011;7476;49.404;11.152;2023-11-21T14:45:30;4.67;;;3.00;;
14768;SDS011;7476;49.404;11.152;2023-11-21T14:47:57;4.70;;;3.00;;
14768;SDS011;7476;49.404;11.152;2023-11-21T14:50:31;2.77;;;2.40;;
14768;SDS011;7476;49.404;11.152;2023-11-21T14:53:13;5.10;;;3.10;;
14768;SDS011;7476;49.404;11.152;2023-11-21T14:55:39;3.83;;;2.80;;